createdAt,value
2023-02-13T00:00:21.635Z,102819.16
2023-02-13T00:02:48.371Z,102822.75
2023-02-13T00:05:15.133Z,102820.13
2023-02-13T00:07:41.849Z,102819.19
2023-02-13T00:10:09.293Z,102814.78
2023-02-13T00:12:36.216Z,102805.16
2023-02-13T00:15:03.598Z,102808.63
2023-02-13T00:17:30.553Z,102817.53
2023-02-13T00:19:57.239Z,102822.06
2023-02-13T00:22:24.483Z,102826.47
2023-02-13T00:24:51.402Z,102822.97
2023-02-13T00:27:18.323Z,102823.88
2023-02-13T00:29:45.311Z,102824.78
2023-02-13T00:32:14.834Z,102823.94
2023-02-13T00:34:41.642Z,102824.03
2023-02-13T00:37:08.408Z,102817.78
2023-02-13T00:39:35.253Z,102822.28
2023-02-13T00:42:01.915Z,102808.19
2023-02-13T00:44:28.676Z,102810.72
2023-02-13T00:46:55.435Z,102820.50
2023-02-13T00:49:23.580Z,102818.78
2023-02-13T00:51:50.311Z,102815.25
2023-02-13T00:54:17.130Z,102821.41
2023-02-13T00:56:44.163Z,102820.44
2023-02-13T00:59:13.146Z,102823.16
2023-02-13T01:01:39.894Z,102818.72
2023-02-13T01:04:06.628Z,102823.16
2023-02-13T01:06:33.314Z,102819.63
2023-02-13T01:09:00.041Z,102822.28
2023-02-13T01:11:26.780Z,102825.72
2023-02-13T01:13:53.489Z,102825.75
2023-02-13T01:16:20.735Z,102826.72
2023-02-13T01:18:47.601Z,102821.38
2023-02-13T01:21:19.110Z,102825.78
2023-02-13T01:23:46.261Z,102825.78
2023-02-13T01:26:19.649Z,102824.09
2023-02-13T01:28:46.754Z,102824.16
2023-02-13T01:31:13.983Z,102825.03
2023-02-13T01:33:40.702Z,102835.59
2023-02-13T01:36:12.182Z,102825.00
2023-02-13T01:38:39.088Z,102817.09
2023-02-13T01:41:06.354Z,102819.75
2023-02-13T01:43:48.415Z,102824.22
2023-02-13T01:46:23.582Z,102812.81
2023-02-13T01:48:51.700Z,102813.72
2023-02-13T01:51:26.296Z,102811.94
2023-02-13T01:54:04.579Z,102815.56
2023-02-13T01:56:37.592Z,102827.03
2023-02-13T01:59:10.809Z,102823.50
2023-02-13T02:01:38.152Z,102820.88
2023-02-13T02:04:13.617Z,102812.88
2023-02-13T02:06:45.411Z,102816.41
2023-02-13T02:09:19.549Z,102809.41
2023-02-13T02:12:03.547Z,102816.47
2023-02-13T02:14:30.705Z,102820.03
2023-02-13T02:16:57.957Z,102816.63
2023-02-13T02:19:48.385Z,102818.34
2023-02-13T02:22:15.139Z,102820.19
2023-02-13T02:25:00.114Z,102814.06
2023-02-13T02:27:47.104Z,102821.06
2023-02-13T02:30:42.169Z,102828.13
2023-02-13T02:33:18.849Z,102832.53
2023-02-13T02:36:07.633Z,102836.00
2023-02-13T02:39:11.786Z,102828.09
2023-02-13T02:41:42.939Z,102827.22
2023-02-13T02:44:28.863Z,102829.91
2023-02-13T02:47:21.420Z,102825.50
2023-02-13T02:50:00.254Z,102823.75
2023-02-13T02:52:36.984Z,102824.69
2023-02-13T02:55:11.971Z,102821.13
2023-02-13T02:58:17.420Z,102825.56
2023-02-13T03:01:03.714Z,102815.00
2023-02-13T03:03:49.726Z,102816.72
2023-02-13T03:06:35.991Z,102815.00
2023-02-13T03:09:25.522Z,102821.09
2023-02-13T03:12:12.464Z,102814.97
2023-02-13T03:14:39.314Z,102819.38
2023-02-13T03:17:24.618Z,102820.25
2023-02-13T03:20:16.497Z,102824.56
2023-02-13T03:23:02.063Z,102827.25
2023-02-13T03:25:50.411Z,102822.91
2023-02-13T03:28:47.085Z,102822.97
2023-02-13T03:31:24.655Z,102822.94
2023-02-13T03:34:13.626Z,102816.81
2023-02-13T03:37:35.073Z,102822.19
2023-02-13T03:40:10.480Z,102822.13
2023-02-13T03:42:53.097Z,102829.13
2023-02-13T03:45:44.540Z,102820.41
2023-02-13T03:48:32.017Z,102818.59
2023-02-13T03:51:00.303Z,102820.41
2023-02-13T03:53:29.759Z,102816.81
2023-02-13T03:56:16.998Z,102811.44
2023-02-13T03:59:05.519Z,102808.84
2023-02-13T04:01:34.820Z,102804.50
2023-02-13T04:04:08.566Z,102807.13
2023-02-13T04:06:47.050Z,102809.78
2023-02-13T04:09:13.925Z,102794.84
2023-02-13T04:11:49.283Z,102808.03
2023-02-13T04:14:20.713Z,102796.59
2023-02-13T04:16:50.538Z,102791.31
2023-02-13T04:19:17.814Z,102805.41
2023-02-13T04:21:44.738Z,102799.28
2023-02-13T04:24:12.347Z,102800.06
2023-02-13T04:26:43.289Z,102804.53
2023-02-13T04:29:10.116Z,102804.44
2023-02-13T04:31:36.965Z,102807.94
2023-02-13T04:34:03.916Z,102803.59
2023-02-13T04:36:30.743Z,102806.19
2023-02-13T04:38:58.024Z,102799.28
2023-02-13T04:41:24.798Z,102799.28
2023-02-13T04:43:52.616Z,102795.75
2023-02-13T04:46:19.630Z,102791.38
2023-02-13T04:48:46.420Z,102791.41
2023-02-13T04:51:13.513Z,102783.47
2023-02-13T04:53:40.235Z,102794.81
2023-02-13T04:56:07.013Z,102799.16
2023-02-13T04:58:33.760Z,102793.09
2023-02-13T05:01:00.615Z,102792.28
2023-02-13T05:03:29.851Z,102789.69
2023-02-13T05:05:56.644Z,102797.53
2023-02-13T05:08:23.349Z,102795.75
2023-02-13T05:10:50.189Z,102795.78
2023-02-13T05:13:16.852Z,102793.09
2023-02-13T05:15:43.666Z,102792.31
2023-02-13T05:18:10.358Z,102802.88
2023-02-13T05:20:37.100Z,102795.81
2023-02-13T05:26:29.043Z,102794.13
2023-02-13T05:29:46.825Z,102796.66
2023-02-13T05:33:08.844Z,102799.31
2023-02-13T05:36:46.820Z,102802.00
2023-02-13T06:06:48.784Z,102817.88
2023-02-13T07:08:28.858Z,102859.16
2023-02-13T07:10:56.079Z,102856.44
2023-02-13T07:13:22.981Z,102859.06
2023-02-13T07:15:49.693Z,102856.44
2023-02-13T07:18:16.423Z,102867.84
2023-02-13T07:20:43.219Z,102866.09
2023-02-13T07:23:12.550Z,102874.84
2023-02-13T07:25:39.387Z,102881.03
2023-02-13T07:28:07.309Z,102874.00
2023-02-13T07:30:34.875Z,102871.38
2023-02-13T07:33:03.355Z,102880.13
2023-02-13T07:35:30.199Z,102881.09
2023-02-13T07:37:57.192Z,102884.59
2023-02-13T07:40:23.967Z,102876.66
2023-02-13T07:42:50.707Z,102879.28
2023-02-13T07:45:17.956Z,102875.78
2023-02-13T07:47:44.648Z,102884.59
2023-02-13T07:50:12.006Z,102881.03
2023-02-13T07:52:38.750Z,102875.72
2023-02-13T07:55:06.057Z,102884.50
2023-02-13T07:57:33.712Z,102882.75
2023-02-13T08:00:00.468Z,102876.56
2023-02-13T08:02:27.210Z,102875.63
2023-02-13T08:04:54.039Z,102880.06
2023-02-13T08:07:20.804Z,102882.69
2023-02-13T08:10:08.664Z,102883.56
2023-02-13T08:12:36.116Z,102888.03
2023-02-13T08:15:04.126Z,102880.94
2023-02-13T08:17:30.934Z,102871.19
2023-02-13T08:19:58.020Z,102878.19
2023-02-13T08:22:24.777Z,102878.19
2023-02-13T08:24:51.568Z,102875.59
2023-02-13T08:27:18.253Z,102880.03
2023-02-13T08:29:44.959Z,102880.81
2023-02-13T08:32:11.756Z,102879.91
2023-02-13T08:34:38.574Z,102872.94
2023-02-13T08:37:05.301Z,102871.16
2023-02-13T08:39:32.053Z,102878.06
2023-02-13T08:41:58.739Z,102874.56
2023-02-13T08:44:25.582Z,102877.16
2023-02-13T08:46:52.482Z,102874.44
2023-02-13T08:49:19.187Z,102877.97
2023-02-13T08:51:45.893Z,102873.56
2023-02-13T08:54:12.555Z,102885.09
2023-02-13T08:56:39.285Z,102883.41
2023-02-13T08:59:05.980Z,102874.50
2023-02-13T09:01:33.023Z,102883.31
2023-02-13T09:03:59.890Z,102889.50
2023-02-13T09:06:27.707Z,102885.09
2023-02-13T09:08:54.703Z,102888.66
2023-02-13T09:11:23.535Z,102893.03
2023-02-13T09:13:53.148Z,102890.38
2023-02-13T09:16:19.970Z,102894.75
2023-02-13T09:18:48.570Z,102895.59
2023-02-13T09:21:16.134Z,102892.00
2023-02-13T09:23:42.866Z,102895.47
2023-02-13T09:26:12.022Z,102899.00
2023-02-13T09:28:39.180Z,102902.56
2023-02-13T09:31:32.414Z,102899.00
2023-02-13T09:33:59.260Z,102901.53
2023-02-13T09:36:26.022Z,102892.66
2023-02-13T09:38:54.970Z,102897.88
2023-02-13T09:41:25.643Z,102896.13
2023-02-13T09:43:59.350Z,102895.28
2023-02-13T09:46:46.620Z,102891.78
2023-02-13T09:49:16.763Z,102900.59
2023-02-13T09:51:44.509Z,102894.41
2023-02-13T09:54:16.388Z,102892.56
2023-02-13T09:57:07.307Z,102894.38
2023-02-13T09:59:34.067Z,102904.09
2023-02-13T10:02:14.501Z,102900.56
2023-02-13T10:04:56.733Z,102907.66
2023-02-13T10:07:45.786Z,102901.47
2023-02-13T10:10:21.995Z,102902.31
2023-02-13T10:12:56.684Z,102898.81
2023-02-13T10:15:49.064Z,102896.09
2023-02-13T10:18:18.020Z,102892.59
2023-02-13T10:20:57.096Z,102889.09
2023-02-13T10:23:40.746Z,102887.19
2023-02-13T10:26:13.000Z,102896.84
2023-02-13T10:29:25.609Z,102888.00
2023-02-13T10:31:55.314Z,102885.38
2023-02-13T10:34:25.546Z,102893.22
2023-02-13T10:36:52.284Z,102885.31
2023-02-13T10:39:24.439Z,102896.81
2023-02-13T10:41:52.649Z,102885.28
2023-02-13T10:44:46.274Z,102891.41
2023-02-13T10:47:25.943Z,102891.41
2023-02-13T10:50:04.178Z,102891.53
2023-02-13T10:52:56.442Z,102884.53
2023-02-13T10:55:41.934Z,102885.38
2023-02-13T10:58:14.624Z,102876.63
2023-02-13T11:00:56.554Z,102868.75
2023-02-13T11:03:25.699Z,102862.63
2023-02-13T11:05:53.756Z,102859.88
2023-02-13T11:08:23.614Z,102859.91
2023-02-13T11:21:31.432Z,102858.19
2023-02-13T12:06:53.003Z,102837.69
2023-02-13T12:19:01.979Z,102837.84
2023-02-13T12:41:25.409Z,102827.38
2023-02-13T12:51:46.018Z,102826.69
2023-02-13T12:54:46.809Z,102828.56
2023-02-13T12:57:56.649Z,102826.84
2023-02-13T13:01:07.171Z,102824.19
2023-02-13T13:22:53.720Z,102843.59
2023-02-13T13:25:54.808Z,102832.13
2023-02-13T13:29:29.727Z,102825.16
2023-02-13T13:46:57.616Z,102832.00
2023-02-13T13:50:17.598Z,102826.66
2023-02-13T13:53:08.737Z,102828.53
2023-02-13T13:55:54.352Z,102825.78
2023-02-13T14:02:45.856Z,102819.75
2023-02-13T14:06:22.866Z,102818.91
2023-02-13T14:17:06.957Z,102797.06
2023-02-13T14:23:22.617Z,102789.94
2023-02-13T14:34:20.505Z,102769.06
2023-02-13T14:40:18.133Z,102776.88
2023-02-13T14:42:46.770Z,102774.22
2023-02-13T14:45:19.207Z,102781.25
2023-02-13T14:47:54.195Z,102775.94
2023-02-13T14:50:45.860Z,102779.47
2023-02-13T14:53:27.333Z,102772.47
2023-02-13T14:56:01.176Z,102769.72
2023-02-13T14:58:33.747Z,102774.13
2023-02-13T15:01:07.168Z,102775.94
2023-02-13T15:03:44.033Z,102763.66
2023-02-13T15:06:15.418Z,102760.13
2023-02-13T15:08:47.463Z,102749.50
2023-02-13T15:11:38.299Z,102755.72
2023-02-13T15:14:17.489Z,102745.28
2023-02-13T15:16:47.268Z,102738.09
2023-02-13T15:19:18.809Z,102743.31
2023-02-13T15:21:52.556Z,102742.47
2023-02-13T15:24:20.444Z,102744.16
2023-02-13T15:26:51.892Z,102744.88
2023-02-13T15:29:29.267Z,102741.38
2023-02-13T15:31:58.808Z,102744.94
2023-02-13T15:34:27.307Z,102745.09
2023-02-13T15:36:54.730Z,102746.09
2023-02-13T15:39:27.535Z,102741.56
2023-02-13T15:42:02.160Z,102744.22
2023-02-13T15:44:32.432Z,102754.91
2023-02-13T15:47:06.994Z,102754.84
2023-02-13T15:49:38.869Z,102741.78
2023-02-13T15:52:32.389Z,102740.91
2023-02-13T15:54:59.511Z,102741.75
2023-02-13T15:57:27.179Z,102739.03
2023-02-13T15:59:59.153Z,102745.16
2023-02-13T16:02:49.794Z,102738.25
2023-02-13T16:05:24.001Z,102744.34
2023-02-13T16:08:01.648Z,102747.06
2023-02-13T16:10:34.195Z,102734.78
2023-02-13T16:13:06.347Z,102735.66
2023-02-13T16:15:36.068Z,102728.63
2023-02-13T16:18:06.396Z,102736.56
2023-02-13T16:20:38.528Z,102741.00
2023-02-13T16:23:17.095Z,102745.41
2023-02-13T16:25:44.163Z,102744.53
2023-02-13T16:28:27.271Z,102744.69
2023-02-13T16:30:59.979Z,102750.81
2023-02-13T16:33:29.290Z,102770.09
2023-02-13T16:36:10.097Z,102769.25
2023-02-13T16:38:45.000Z,102777.13
2023-02-13T16:41:28.914Z,102777.94
2023-02-13T16:43:59.123Z,102773.56
2023-02-13T16:46:34.395Z,102766.47
2023-02-13T16:49:10.296Z,102777.09
2023-02-13T16:51:40.078Z,102768.31
2023-02-13T16:54:39.835Z,102769.16
2023-02-13T16:57:20.960Z,102770.06
2023-02-13T16:59:49.703Z,102770.97
2023-02-13T17:02:33.682Z,102766.63
2023-02-13T17:05:20.414Z,102773.75
2023-02-13T17:07:53.401Z,102772.88
2023-02-13T17:10:21.901Z,102769.31
2023-02-13T17:12:53.013Z,102778.09
2023-02-13T17:15:22.400Z,102786.03
2023-02-13T17:17:56.561Z,102777.31
2023-02-13T17:20:32.004Z,102780.81
2023-02-13T17:23:08.593Z,102786.97
2023-02-13T17:25:37.762Z,102779.06
2023-02-13T17:28:18.885Z,102783.50
2023-02-13T17:30:46.175Z,102792.28
2023-02-13T17:33:15.799Z,102787.88
2023-02-13T17:35:42.901Z,102787.06
2023-02-13T17:38:10.886Z,102776.47
2023-02-13T17:40:37.817Z,102783.47
2023-02-13T17:43:04.749Z,102773.84
2023-02-13T17:45:34.752Z,102775.63
2023-02-13T17:48:01.543Z,102786.97
2023-02-13T17:50:29.667Z,102788.72
2023-02-13T17:52:57.100Z,102787.97
2023-02-13T17:55:26.421Z,102797.66
2023-02-13T17:57:56.695Z,102795.97
2023-02-13T18:00:27.669Z,102807.47
2023-02-13T18:02:54.964Z,102802.09
2023-02-13T18:05:28.122Z,102803.78
2023-02-13T18:07:55.797Z,102797.56
2023-02-13T18:10:30.920Z,102802.75
2023-02-13T18:13:04.011Z,102785.09
2023-02-13T18:15:35.203Z,102787.81
2023-02-13T18:18:08.652Z,102780.81
2023-02-13T18:20:36.462Z,102783.53
2023-02-13T18:23:05.406Z,102784.50
2023-02-13T18:25:32.316Z,102787.97
2023-02-13T18:28:14.154Z,102788.03
2023-02-13T18:30:44.405Z,102788.91
2023-02-13T18:33:13.329Z,102802.91
2023-02-13T18:35:40.389Z,102803.88
2023-02-13T18:38:07.192Z,102796.00
2023-02-13T18:40:42.483Z,102803.09
2023-02-13T18:43:35.354Z,102803.09
2023-02-13T18:46:04.943Z,102800.38
2023-02-13T18:48:32.315Z,102813.59
2023-02-13T18:51:01.294Z,102798.59
2023-02-13T18:53:30.602Z,102804.75
2023-02-13T18:56:05.815Z,102803.84
2023-02-13T18:58:33.142Z,102798.56
2023-02-13T19:01:10.427Z,102796.78
2023-02-13T19:03:38.406Z,102795.94
2023-02-13T19:06:11.405Z,102799.47
2023-02-13T19:09:00.235Z,102797.66
2023-02-13T19:11:28.139Z,102803.84
2023-02-13T19:13:56.826Z,102798.50
2023-02-13T19:16:28.589Z,102788.84
2023-02-13T19:18:57.516Z,102793.28
2023-02-13T19:21:26.282Z,102799.59
2023-02-13T19:23:53.372Z,102800.41
2023-02-13T19:26:25.462Z,102799.63
2023-02-13T19:32:27.391Z,102795.25
2023-02-13T19:52:51.302Z,102818.31
2023-02-13T19:56:10.991Z,102824.41
2023-02-13T19:58:47.834Z,102816.50
2023-02-13T20:05:39.649Z,102812.09
2023-02-13T20:12:16.634Z,102815.56
2023-02-13T20:15:06.370Z,102817.34
2023-02-13T21:24:19.222Z,102863.91
2023-02-13T21:58:12.168Z,102864.00
